createdAt,value
2018-08-23T00:00:51.421Z,39.36
2018-08-23T00:03:25.133Z,40.18
2018-08-23T00:05:54.996Z,39.54
2018-08-23T00:08:23.906Z,40.08
2018-08-23T00:10:53.194Z,40.54
2018-08-23T00:13:22.405Z,40.60
2018-08-23T00:15:51.044Z,41.27
2018-08-23T00:18:19.563Z,41.12
2018-08-23T00:20:48.378Z,41.05
2018-08-23T00:23:16.912Z,41.24
2018-08-23T00:25:45.484Z,40.88
2018-08-23T00:28:14.256Z,41.66
2018-08-23T00:32:13.180Z,40.99
2018-08-23T00:34:41.935Z,41.67
2018-08-23T00:37:12.880Z,42.04
2018-08-23T00:39:41.345Z,42.19
2018-08-23T00:42:11.474Z,41.24
2018-08-23T00:45:05.337Z,41.30
2018-08-23T00:47:34.398Z,42.25
2018-08-23T00:50:04.004Z,42.04
2018-08-23T00:52:48.203Z,41.78
2018-08-23T00:55:23.767Z,41.69
2018-08-23T00:57:52.263Z,41.85
2018-08-23T01:00:21.934Z,43.12
2018-08-23T01:02:51.587Z,43.41
2018-08-23T01:05:25.447Z,42.47
2018-08-23T01:07:54.296Z,43.08
2018-08-23T01:10:22.839Z,43.63
2018-08-23T01:12:57.867Z,43.21
2018-08-23T01:15:26.907Z,43.13
2018-08-23T01:18:08.486Z,43.80
2018-08-23T01:20:37.627Z,43.70
2018-08-23T01:23:06.191Z,42.80
2018-08-23T01:25:42.010Z,43.77
2018-08-23T01:28:10.920Z,43.72
2018-08-23T01:30:39.952Z,44.00
2018-08-23T01:33:10.783Z,43.14
2018-08-23T01:35:41.227Z,43.98
2018-08-23T01:38:09.989Z,43.02
2018-08-23T01:40:38.634Z,43.43
2018-08-23T01:43:07.463Z,44.44
2018-08-23T01:45:36.090Z,44.68
2018-08-23T01:48:06.942Z,44.49
2018-08-23T01:50:35.739Z,44.52
2018-08-23T01:53:04.341Z,44.48
2018-08-23T01:55:32.816Z,43.91
2018-08-23T01:58:01.646Z,43.83
2018-08-23T02:00:33.235Z,44.65
2018-08-23T02:03:02.623Z,44.63
2018-08-23T02:05:31.481Z,44.89
2018-08-23T02:08:05.558Z,44.71
2018-08-23T02:10:34.111Z,44.40
2018-08-23T02:13:02.968Z,44.62
2018-08-23T02:15:41.611Z,44.75
2018-08-23T02:18:10.427Z,44.84
2018-08-23T02:20:38.919Z,44.94
2018-08-23T02:23:07.401Z,45.41
2018-08-23T02:25:36.219Z,45.28
2018-08-23T02:28:09.900Z,45.13
2018-08-23T02:30:56.113Z,45.31
2018-08-23T02:33:25.235Z,45.32
2018-08-23T02:36:19.062Z,46.35
2018-08-23T02:38:50.241Z,45.67
2018-08-23T02:41:18.789Z,46.60
2018-08-23T02:43:47.725Z,46.88
2018-08-23T02:46:16.608Z,46.89
2018-08-23T02:48:45.231Z,46.26
2018-08-23T02:51:14.017Z,46.10
2018-08-23T02:53:43.991Z,47.21
2018-08-23T02:56:14.601Z,46.39
2018-08-23T02:58:58.172Z,46.79
2018-08-23T03:01:28.298Z,47.00
2018-08-23T03:04:08.595Z,47.54
2018-08-23T03:07:10.424Z,46.98
2018-08-23T03:09:41.173Z,47.11
2018-08-23T03:12:11.655Z,47.98
2018-08-23T03:14:40.809Z,47.72
2018-08-23T03:17:18.124Z,47.57
2018-08-23T03:20:04.596Z,48.17
2018-08-23T03:22:34.265Z,48.29
2018-08-23T03:25:04.967Z,47.62
2018-08-23T03:27:33.593Z,48.14
2018-08-23T03:30:04.033Z,47.75
2018-08-23T03:32:32.572Z,48.38
2018-08-23T03:35:01.871Z,47.64
2018-08-23T03:37:30.356Z,47.82
2018-08-23T03:39:58.969Z,48.28
2018-08-23T03:42:28.138Z,48.21
2018-08-23T03:44:57.574Z,48.55
2018-08-23T03:47:26.413Z,48.57
2018-08-23T03:49:55.213Z,48.01
2018-08-23T03:52:38.863Z,48.89
2018-08-23T03:55:08.577Z,49.06
2018-08-23T03:57:42.078Z,48.31
2018-08-23T04:00:10.608Z,48.55
2018-08-23T04:02:39.468Z,48.85
2018-08-23T04:05:13.867Z,48.36
2018-08-23T04:07:43.612Z,48.34
2018-08-23T04:10:12.518Z,49.37
2018-08-23T04:12:42.303Z,49.39
2018-08-23T04:15:18.523Z,49.52
2018-08-23T04:17:48.049Z,48.70
2018-08-23T04:20:17.009Z,48.67
2018-08-23T04:22:45.544Z,48.65
2018-08-23T04:25:14.329Z,48.72
2018-08-23T04:27:42.884Z,48.87
2018-08-23T04:30:11.488Z,48.84
2018-08-23T04:32:45.384Z,49.35
2018-08-23T04:35:19.376Z,50.40
2018-08-23T04:37:48.467Z,50.56
2018-08-23T04:40:17.023Z,50.80
2018-08-23T04:42:45.629Z,51.05
2018-08-23T04:45:19.208Z,50.69
2018-08-23T04:48:19.308Z,50.14
2018-08-23T04:50:48.304Z,50.92
2018-08-23T04:53:17.146Z,50.59
2018-08-23T04:55:45.660Z,51.56
2018-08-23T04:58:14.547Z,50.65
2018-08-23T05:00:43.187Z,51.48
2018-08-23T05:03:11.971Z,50.38
2018-08-23T05:05:40.791Z,50.04
2018-08-23T05:08:09.415Z,50.37
2018-08-23T05:10:37.991Z,50.08
2018-08-23T05:13:06.893Z,49.86
2018-08-23T05:15:35.559Z,49.90
2018-08-23T05:18:06.257Z,49.62
2018-08-23T05:20:35.064Z,49.87
2018-08-23T05:23:04.129Z,50.27
2018-08-23T05:25:32.649Z,50.65
2018-08-23T05:28:19.510Z,50.21
2018-08-23T05:30:48.710Z,51.30
2018-08-23T05:33:19.360Z,51.02
2018-08-23T05:35:48.092Z,51.37
2018-08-23T05:38:17.423Z,50.75
2018-08-23T05:40:51.127Z,50.55
2018-08-23T05:43:19.683Z,50.94
2018-08-23T05:45:53.575Z,50.09
2018-08-23T05:48:36.402Z,50.61
2018-08-23T05:51:13.240Z,49.91
2018-08-23T05:53:44.523Z,50.43
2018-08-23T05:56:13.173Z,50.54
2018-08-23T05:58:41.699Z,49.65
2018-08-23T06:01:10.567Z,50.07
2018-08-23T06:03:39.300Z,50.12
2018-08-23T06:06:08.251Z,49.89
2018-08-23T06:08:37.256Z,49.52
2018-08-23T06:11:09.656Z,49.58
2018-08-23T06:13:38.440Z,49.68
2018-08-23T06:16:07.362Z,50.44
2018-08-23T06:18:35.929Z,49.92
2018-08-23T06:21:04.499Z,50.10
2018-08-23T06:23:53.895Z,50.15
2018-08-23T06:26:31.365Z,49.75
2018-08-23T06:29:00.130Z,49.32
2018-08-23T06:31:28.752Z,49.16
2018-08-23T06:33:57.408Z,49.09
2018-08-23T06:36:26.297Z,48.69
2018-08-23T06:38:59.774Z,48.25
2018-08-23T06:41:28.956Z,48.51
2018-08-23T06:43:57.843Z,47.51
2018-08-23T06:46:26.427Z,48.17
2018-08-23T06:48:55.046Z,47.41
2018-08-23T06:51:23.868Z,46.95
2018-08-23T06:53:54.393Z,46.52
2018-08-23T06:56:22.991Z,46.47
2018-08-23T06:58:51.794Z,47.39
2018-08-23T07:01:33.279Z,46.45
2018-08-23T07:04:06.220Z,46.51
2018-08-23T07:06:36.037Z,46.54
2018-08-23T07:09:08.719Z,46.30
2018-08-23T07:11:37.656Z,45.46
2018-08-23T07:14:14.081Z,45.35
2018-08-23T07:16:43.899Z,45.10
2018-08-23T07:19:33.032Z,45.17
2018-08-23T07:22:03.772Z,45.60
2018-08-23T07:24:41.020Z,45.76
2018-08-23T07:27:11.900Z,45.46
2018-08-23T07:29:40.451Z,46.29
2018-08-23T07:32:13.206Z,45.85
2018-08-23T07:34:58.231Z,46.23
2018-08-23T07:37:27.223Z,46.30
2018-08-23T07:40:01.407Z,45.88
2018-08-23T07:42:32.597Z,45.40
2018-08-23T07:45:01.740Z,45.45
2018-08-23T07:47:31.022Z,44.62
2018-08-23T07:50:00.742Z,45.79
2018-08-23T07:52:30.965Z,45.32
2018-08-23T07:54:59.614Z,44.79
2018-08-23T07:57:32.030Z,44.53
2018-08-23T08:00:02.961Z,45.53
2018-08-23T08:02:31.495Z,44.91
2018-08-23T08:05:00.244Z,45.43
2018-08-23T08:07:31.000Z,44.73
2018-08-23T08:10:01.156Z,45.31
2018-08-23T08:12:38.762Z,44.86
2018-08-23T08:15:09.983Z,44.79
2018-08-23T08:17:38.614Z,45.42
2018-08-23T08:20:09.507Z,45.34
2018-08-23T08:22:38.654Z,45.67
2018-08-23T08:25:11.481Z,44.90
2018-08-23T08:27:40.457Z,45.90
2018-08-23T08:30:10.669Z,44.66
2018-08-23T08:32:39.167Z,44.87
2018-08-23T08:35:12.115Z,45.29
2018-08-23T08:37:40.654Z,45.90
2018-08-23T08:40:24.608Z,45.53
2018-08-23T08:42:53.442Z,44.43
2018-08-23T08:45:23.252Z,44.33
2018-08-23T08:47:51.871Z,45.13
2018-08-23T08:50:20.971Z,44.13
2018-08-23T08:52:49.452Z,44.58
2018-08-23T08:55:18.196Z,44.18
2018-08-23T08:57:47.743Z,45.63
2018-08-23T09:00:16.316Z,46.28
2018-08-23T09:02:45.038Z,45.99
2018-08-23T09:05:13.885Z,44.43
2018-08-23T09:07:44.243Z,45.02
2018-08-23T09:10:12.814Z,44.15
2018-08-23T09:12:47.643Z,43.42
2018-08-23T09:15:16.253Z,42.42
2018-08-23T09:17:46.025Z,43.42
2018-08-23T09:20:19.609Z,43.79
2018-08-23T09:22:56.123Z,42.82
2018-08-23T09:25:28.400Z,42.00
2018-08-23T09:27:57.025Z,43.50
2018-08-23T09:30:27.754Z,42.19
2018-08-23T09:32:56.892Z,42.16
2018-08-23T09:35:30.971Z,41.71
2018-08-23T09:38:00.793Z,41.35
2018-08-23T09:40:29.951Z,40.98
2018-08-23T09:43:02.582Z,40.86
2018-08-23T09:45:32.435Z,40.43
2018-08-23T09:48:01.016Z,40.36
2018-08-23T09:50:30.332Z,40.38
2018-08-23T09:52:59.207Z,39.50
2018-08-23T09:55:31.497Z,39.44
2018-08-23T09:58:00.625Z,39.05
2018-08-23T10:00:34.507Z,38.97
2018-08-23T10:03:08.404Z,39.14
2018-08-23T10:05:48.712Z,38.26
2018-08-23T10:08:22.681Z,38.39
2018-08-23T10:10:56.677Z,38.70
2018-08-23T10:13:31.032Z,37.58
2018-08-23T10:16:04.876Z,35.63
2018-08-23T10:18:38.838Z,36.25
2018-08-23T10:21:07.511Z,35.22
2018-08-23T10:23:36.163Z,34.51
2018-08-23T10:26:11.824Z,33.29
2018-08-23T10:28:53.248Z,34.17
2018-08-23T10:31:22.179Z,33.77
2018-08-23T10:33:51.035Z,34.13
2018-08-23T10:36:19.639Z,34.40
2018-08-23T10:38:49.603Z,33.47
2018-08-23T10:41:18.324Z,33.12
2018-08-23T10:43:47.704Z,33.72
2018-08-23T10:46:17.306Z,33.82
2018-08-23T10:48:45.828Z,34.29
2018-08-23T10:51:14.374Z,33.13
2018-08-23T10:53:43.194Z,33.07
2018-08-23T10:56:11.745Z,33.07
2018-08-23T10:58:40.284Z,31.91
2018-08-23T11:01:09.091Z,30.89
2018-08-23T11:03:37.644Z,30.54
2018-08-23T11:06:06.342Z,31.00
2018-08-23T11:08:36.673Z,29.99
2018-08-23T11:11:10.566Z,29.20
2018-08-23T11:13:44.284Z,29.41
2018-08-23T11:16:18.336Z,29.31
2018-08-23T11:18:53.794Z,28.81
2018-08-23T11:21:22.753Z,29.30
2018-08-23T11:23:51.342Z,29.06
2018-08-23T11:26:21.387Z,28.81
2018-08-23T11:28:50.631Z,27.88
2018-08-23T11:31:24.396Z,27.32
2018-08-23T11:33:53.230Z,27.61
2018-08-23T11:36:21.921Z,27.20
2018-08-23T11:41:47.995Z,26.86
2018-08-23T11:44:17.772Z,26.28
2018-08-23T11:46:46.786Z,25.86
2018-08-23T11:49:15.899Z,25.62
2018-08-23T11:51:44.634Z,26.18
2018-08-23T11:54:13.271Z,25.64
2018-08-23T11:56:42.368Z,25.92
2018-08-23T11:59:11.258Z,26.61
2018-08-23T12:01:40.023Z,26.68
2018-08-23T12:04:09.051Z,26.14
2018-08-23T13:34:34.846Z,21.32
2018-08-23T13:37:11.901Z,20.96
2018-08-23T13:39:41.589Z,21.54
2018-08-23T13:42:11.024Z,22.79
2018-08-23T13:44:40.225Z,24.59
2018-08-23T13:47:09.225Z,24.75
2018-08-23T13:49:38.467Z,27.04
2018-08-23T13:52:07.536Z,26.76
2018-08-23T13:54:37.082Z,28.20
2018-08-23T13:57:05.843Z,27.83
2018-08-23T13:59:34.950Z,28.36
2018-08-23T14:02:05.097Z,27.71
2018-08-23T14:04:33.919Z,25.90
2018-08-23T14:07:03.651Z,24.54
2018-08-23T14:09:33.124Z,23.82
2018-08-23T14:12:03.976Z,22.10
2018-08-23T14:14:33.053Z,21.45
2018-08-23T14:17:05.889Z,20.49
2018-08-23T14:19:34.926Z,19.30
2018-08-23T14:22:04.787Z,19.50
2018-08-23T14:24:34.135Z,18.73
2018-08-23T14:27:03.358Z,17.89
2018-08-23T14:29:32.524Z,18.01
2018-08-23T14:32:03.875Z,17.08
2018-08-23T14:34:33.214Z,16.57
2018-08-23T14:37:18.286Z,16.76
2018-08-23T14:40:05.702Z,16.74
2018-08-23T14:42:34.837Z,18.04
2018-08-23T14:45:05.702Z,17.62
2018-08-23T14:47:39.833Z,17.23
2018-08-23T14:50:08.584Z,16.48
2018-08-23T14:52:44.843Z,15.45
2018-08-23T14:55:18.437Z,15.44
2018-08-23T14:57:47.592Z,15.25
2018-08-23T15:00:17.059Z,16.86
2018-08-23T15:02:46.084Z,17.33
2018-08-23T15:05:15.189Z,18.41
2018-08-23T15:07:44.521Z,20.10
2018-08-23T15:10:14.453Z,20.39
2018-08-23T15:12:43.712Z,21.25
2018-08-23T15:15:13.155Z,20.31
2018-08-23T15:17:42.307Z,20.41
2018-08-23T15:20:11.540Z,20.37
2018-08-23T15:22:40.934Z,19.60
2018-08-23T15:25:10.418Z,20.64
2018-08-23T15:27:52.136Z,19.28
2018-08-23T15:30:21.513Z,18.18
2018-08-23T15:32:50.737Z,17.84
2018-08-23T15:35:19.721Z,18.36
2018-08-23T15:37:49.097Z,17.69
2018-08-23T15:40:19.124Z,17.61
2018-08-23T15:42:48.069Z,17.14
2018-08-23T15:45:17.887Z,17.45
2018-08-23T15:48:01.366Z,16.71
2018-08-23T15:50:30.772Z,16.36
2018-08-23T15:53:00.039Z,16.16
2018-08-23T15:55:29.332Z,15.97
2018-08-23T15:57:58.408Z,16.30
2018-08-23T16:00:31.386Z,16.93
2018-08-23T16:03:00.454Z,17.83
2018-08-23T16:05:29.720Z,19.65
2018-08-23T16:07:58.883Z,20.01
2018-08-23T16:10:27.863Z,19.64
2018-08-23T16:13:07.059Z,19.54
2018-08-23T16:15:35.931Z,19.29
2018-08-23T16:18:13.909Z,20.08
2018-08-23T16:20:55.438Z,20.15
2018-08-23T16:23:24.304Z,21.31
2018-08-23T16:25:54.459Z,21.44
2018-08-23T16:28:23.321Z,22.06
2018-08-23T16:30:52.229Z,21.83
2018-08-23T16:33:21.096Z,21.79
2018-08-23T16:35:50.010Z,21.79
2018-08-23T16:38:21.816Z,22.31
2018-08-23T16:40:50.697Z,22.49
2018-08-23T16:43:19.594Z,22.29
2018-08-23T16:45:48.608Z,22.66
2018-08-23T16:48:17.916Z,22.77
2018-08-23T16:50:46.808Z,23.14
2018-08-23T16:53:16.381Z,23.53
2018-08-23T16:55:45.274Z,23.31
2018-08-23T16:58:14.061Z,23.28
2018-08-23T17:00:43.227Z,24.18
2018-08-23T17:03:12.028Z,24.18
2018-08-23T17:05:41.011Z,24.20
2018-08-23T17:08:10.287Z,25.53
2018-08-23T17:10:45.995Z,25.42
2018-08-23T17:13:47.331Z,26.22
2018-08-23T17:16:21.874Z,25.39
2018-08-23T17:18:51.272Z,26.19
2018-08-23T17:21:20.705Z,25.83
2018-08-23T17:23:51.082Z,25.98
2018-08-23T17:26:20.400Z,26.60
2018-08-23T17:28:50.101Z,27.32
2018-08-23T17:31:19.342Z,27.69
2018-08-23T17:33:48.438Z,27.90
2018-08-23T17:36:18.319Z,28.34
2018-08-23T17:38:48.315Z,28.41
2018-08-23T17:44:01.536Z,27.96
2018-08-23T17:46:30.444Z,28.16
2018-08-23T17:48:59.516Z,30.48
2018-08-23T17:51:28.823Z,29.69
2018-08-23T17:53:58.104Z,28.50
2018-08-23T17:56:27.156Z,28.31
2018-08-23T17:58:56.498Z,28.61
2018-08-23T18:01:25.591Z,29.13
2018-08-23T18:03:54.261Z,29.70
2018-08-23T18:06:23.565Z,29.20
2018-08-23T18:08:52.476Z,29.36
2018-08-23T18:11:21.761Z,29.44
2018-08-23T18:13:51.049Z,29.82
2018-08-23T18:16:25.170Z,29.30
2018-08-23T18:18:54.124Z,30.33
2018-08-23T18:21:23.445Z,30.44
2018-08-23T18:23:52.624Z,30.51
2018-08-23T18:26:21.531Z,32.73
2018-08-23T18:28:50.886Z,34.63
2018-08-23T18:31:19.971Z,36.65
2018-08-23T18:33:49.142Z,38.66
2018-08-23T18:36:21.558Z,42.84
2018-08-23T18:38:50.586Z,47.73
2018-08-23T18:41:19.588Z,48.15
2018-08-23T18:43:49.028Z,48.50
2018-08-23T18:46:18.641Z,47.64
2018-08-23T18:48:47.592Z,48.12
2018-08-23T18:51:17.006Z,47.88
2018-08-23T18:53:46.125Z,48.47
2018-08-23T18:56:15.013Z,49.28
2018-08-23T18:58:44.383Z,48.87
2018-08-23T19:01:13.436Z,49.21
2018-08-23T19:03:42.438Z,48.28
2018-08-23T19:06:11.735Z,48.86
2018-08-23T19:08:40.779Z,48.81
2018-08-23T19:11:09.679Z,49.07
2018-08-23T19:13:38.921Z,48.44
2018-08-23T19:16:12.894Z,48.88
2018-08-23T19:18:41.872Z,47.97
2018-08-23T19:21:10.994Z,50.00
2018-08-23T19:23:39.931Z,48.94
2018-08-23T19:26:09.048Z,48.96
2018-08-23T19:28:38.367Z,50.80
2018-08-23T19:31:07.243Z,50.22
2018-08-23T19:33:36.123Z,51.92
2018-08-23T19:36:06.412Z,51.63
2018-08-23T19:38:35.272Z,53.99
2018-08-23T19:41:04.410Z,49.85
2018-08-23T19:43:33.814Z,50.15
2018-08-23T19:46:07.806Z,49.65
2018-08-23T19:48:37.100Z,51.77
2018-08-23T19:51:06.472Z,51.40
2018-08-23T19:53:35.332Z,52.18
2018-08-23T19:56:05.464Z,51.62
2018-08-23T19:58:34.828Z,51.04
2018-08-23T20:01:05.311Z,51.14
2018-08-23T20:03:35.779Z,50.91
2018-08-23T20:06:05.319Z,52.03
2018-08-23T20:08:34.301Z,51.22
2018-08-23T20:11:03.997Z,51.74
2018-08-23T20:13:32.981Z,51.68
2018-08-23T20:16:03.147Z,51.70
2018-08-23T20:18:32.528Z,51.59
2018-08-23T20:21:01.689Z,51.79
2018-08-23T20:23:30.635Z,51.07
2018-08-23T20:26:00.105Z,52.02
2018-08-23T20:28:29.075Z,52.41
2018-08-23T20:30:58.053Z,51.81
2018-08-23T20:33:27.288Z,52.60
2018-08-23T20:35:56.499Z,52.58
2018-08-23T20:38:25.444Z,55.48
2018-08-23T20:40:54.926Z,60.79
2018-08-23T20:43:23.848Z,64.13
2018-08-23T20:45:52.914Z,60.74
2018-08-23T20:48:22.179Z,65.91
2018-08-23T20:50:51.154Z,63.79
2018-08-23T20:53:19.948Z,63.27
2018-08-23T20:55:49.210Z,67.06
2018-08-23T20:58:18.589Z,67.90
2018-08-23T21:00:47.269Z,69.22
2018-08-23T21:03:16.503Z,67.74
2018-08-23T21:05:45.459Z,68.63
2018-08-23T21:08:14.315Z,69.64
2018-08-23T21:10:43.557Z,68.18
2018-08-23T21:13:12.573Z,69.32
2018-08-23T21:15:41.503Z,68.56
2018-08-23T21:18:12.456Z,67.33
2018-08-23T21:20:42.107Z,68.01
2018-08-23T21:23:11.110Z,67.38
2018-08-23T21:25:42.740Z,65.30
2018-08-23T21:28:11.754Z,67.14
2018-08-23T21:30:40.755Z,68.92
2018-08-23T21:33:10.023Z,69.19
2018-08-23T21:35:39.063Z,67.55
2018-08-23T21:38:07.986Z,67.25
2018-08-23T21:40:37.236Z,67.05
2018-08-23T21:43:06.309Z,65.46
2018-08-23T21:45:35.545Z,64.35
2018-08-23T21:48:05.504Z,65.75
2018-08-23T21:50:34.524Z,66.86
2018-08-23T21:53:03.695Z,66.71
2018-08-23T21:55:36.938Z,66.34
2018-08-23T21:58:07.351Z,66.87
2018-08-23T22:00:41.609Z,66.98
2018-08-23T22:03:11.576Z,65.60
2018-08-23T22:05:41.183Z,65.92
2018-08-23T22:08:10.609Z,65.84
2018-08-23T22:10:40.139Z,66.52
2018-08-23T22:13:09.756Z,66.00
2018-08-23T22:15:43.715Z,63.54
2018-08-23T22:18:13.140Z,63.90
2018-08-23T22:20:42.324Z,63.59
2018-08-23T22:23:12.203Z,64.80
2018-08-23T22:25:41.671Z,63.74
2018-08-23T22:28:11.128Z,63.87
2018-08-23T22:30:40.629Z,62.55
2018-08-23T22:33:11.172Z,64.99
2018-08-23T22:35:40.158Z,65.02
2018-08-23T22:38:09.812Z,67.19
2018-08-23T22:40:39.055Z,66.90
2018-08-23T22:43:08.150Z,66.93
2018-08-23T22:45:37.305Z,69.15
2018-08-23T22:48:06.652Z,69.52
2018-08-23T22:50:35.536Z,68.66
2018-08-23T22:53:04.391Z,68.93
2018-08-23T22:55:33.683Z,70.58
2018-08-23T22:58:03.339Z,70.17
2018-08-23T23:00:37.265Z,70.39
2018-08-23T23:03:11.369Z,70.39
2018-08-23T23:05:40.312Z,69.57
2018-08-23T23:08:09.903Z,69.31
2018-08-23T23:10:40.214Z,70.02
2018-08-23T23:13:09.856Z,69.66
2018-08-23T23:15:38.696Z,72.04
2018-08-23T23:18:08.071Z,71.34
2018-08-23T23:20:39.051Z,70.30
2018-08-23T23:23:08.103Z,70.18
2018-08-23T23:25:37.831Z,69.27
2018-08-23T23:28:07.475Z,69.21
2018-08-23T23:30:36.627Z,70.15
2018-08-23T23:33:05.997Z,69.87
2018-08-23T23:35:35.262Z,69.30
2018-08-23T23:38:05.081Z,69.14
2018-08-23T23:40:34.582Z,68.89
2018-08-23T23:43:05.170Z,69.59
2018-08-23T23:45:34.063Z,68.72
2018-08-23T23:48:04.610Z,67.70
2018-08-23T23:50:33.493Z,68.56
2018-08-23T23:53:02.630Z,68.27
2018-08-23T23:55:31.804Z,67.51
2018-08-23T23:58:00.658Z,67.26
